createdAt,value
2023-05-22T00:01:39.703Z,24.30
2023-05-22T00:04:06.303Z,24.90
2023-05-22T00:06:34.062Z,24.30
2023-05-22T00:09:00.736Z,24.73
2023-05-22T00:11:27.336Z,25.23
2023-05-22T00:13:53.845Z,24.27
2023-05-22T00:16:20.385Z,26.83
2023-05-22T00:18:47.819Z,25.27
2023-05-22T00:21:14.675Z,23.80
2023-05-22T00:23:41.515Z,23.27
2023-05-22T00:26:08.059Z,23.52
2023-05-22T00:28:34.617Z,24.45
2023-05-22T00:31:01.073Z,24.10
2023-05-22T00:33:27.670Z,24.10
2023-05-22T00:35:54.160Z,24.30
2023-05-22T00:38:32.770Z,24.02
2023-05-22T00:41:01.006Z,24.13
2023-05-22T00:43:27.920Z,27.83
2023-05-22T00:45:54.833Z,23.83
2023-05-22T00:48:22.285Z,25.25
2023-05-22T00:50:53.776Z,25.25
2023-05-22T00:53:21.882Z,24.75
2023-05-22T00:55:48.642Z,23.00
2023-05-22T00:58:18.016Z,23.70
2023-05-22T01:00:45.233Z,30.08
2023-05-22T01:03:11.876Z,26.83
2023-05-22T01:05:39.837Z,27.35
2023-05-22T01:08:07.691Z,22.88
2023-05-22T01:10:36.050Z,23.48
2023-05-22T01:13:11.535Z,24.00
2023-05-22T01:15:56.744Z,23.55
2023-05-22T01:18:41.733Z,23.65
2023-05-22T01:21:30.375Z,22.80
2023-05-22T01:24:20.935Z,23.05
2023-05-22T01:26:57.463Z,22.35
2023-05-22T01:29:47.910Z,23.58
2023-05-22T01:32:19.802Z,23.13
2023-05-22T01:34:47.782Z,23.15
2023-05-22T01:37:14.970Z,23.67
2023-05-22T01:39:42.581Z,22.65
2023-05-22T01:42:09.136Z,23.30
2023-05-22T01:44:35.637Z,26.80
2023-05-22T01:47:05.227Z,23.30
2023-05-22T01:49:36.190Z,23.17
2023-05-22T01:52:22.540Z,28.65
2023-05-22T01:54:59.651Z,25.17
2023-05-22T01:57:42.610Z,23.92
2023-05-22T02:00:16.079Z,24.02
2023-05-22T02:02:48.207Z,24.60
2023-05-22T02:05:18.825Z,28.75
2023-05-22T02:07:46.216Z,24.00
2023-05-22T02:10:14.204Z,28.00
2023-05-22T02:12:41.905Z,24.33
2023-05-22T02:15:08.899Z,23.48
2023-05-22T02:17:42.545Z,23.95
2023-05-22T02:20:15.164Z,27.40
2023-05-22T02:22:46.338Z,24.98
2023-05-22T02:25:14.643Z,24.60
2023-05-22T02:27:45.874Z,23.38
2023-05-22T02:30:13.632Z,24.95
2023-05-22T02:32:41.973Z,23.73
2023-05-22T02:35:09.486Z,29.13
2023-05-22T02:37:36.917Z,25.05
2023-05-22T02:40:06.268Z,25.20
2023-05-22T02:42:33.207Z,25.17
2023-05-22T02:45:00.166Z,25.25
2023-05-22T02:47:27.056Z,30.60
2023-05-22T02:49:53.664Z,25.20
2023-05-22T02:52:20.892Z,25.20
2023-05-22T02:54:47.413Z,24.65
2023-05-22T02:57:14.007Z,23.33
2023-05-22T02:59:40.780Z,24.30
2023-05-22T03:02:07.951Z,23.83
2023-05-22T03:04:38.305Z,25.65
2023-05-22T03:09:32.103Z,25.13
2023-05-22T03:11:58.571Z,25.73
2023-05-22T03:14:24.997Z,23.35
2023-05-22T03:16:51.597Z,24.23
2023-05-22T03:19:18.235Z,23.20
2023-05-22T03:21:44.754Z,24.75
2023-05-22T03:24:12.735Z,23.60
2023-05-22T03:26:39.757Z,23.27
2023-05-22T03:29:06.391Z,23.90
2023-05-22T03:31:34.056Z,25.35
2023-05-22T03:34:01.132Z,25.92
2023-05-22T03:36:28.269Z,22.17
2023-05-22T03:38:55.933Z,22.48
2023-05-22T03:41:22.448Z,22.20
2023-05-22T03:43:48.957Z,28.55
2023-05-22T03:46:15.771Z,22.55
2023-05-22T03:48:42.386Z,21.95
2023-05-22T03:51:08.949Z,23.52
2023-05-22T03:53:35.585Z,23.90
2023-05-22T03:56:02.256Z,23.55
2023-05-22T03:58:28.921Z,22.13
2023-05-22T04:00:58.515Z,21.65
2023-05-22T04:03:25.343Z,21.23
2023-05-22T04:05:51.997Z,22.02
2023-05-22T04:08:18.684Z,20.60
2023-05-22T04:10:46.582Z,21.38
2023-05-22T04:13:13.730Z,20.10
2023-05-22T04:15:41.747Z,21.02
2023-05-22T04:18:08.551Z,20.33
2023-05-22T04:20:39.052Z,20.40
2023-05-22T04:23:07.210Z,21.33
2023-05-22T04:25:34.352Z,19.98
2023-05-22T04:28:04.071Z,19.83
2023-05-22T04:30:33.981Z,19.00
2023-05-22T04:33:01.548Z,23.23
2023-05-22T04:35:29.527Z,19.48
2023-05-22T04:38:02.218Z,19.65
2023-05-22T04:40:30.388Z,20.10
2023-05-22T04:42:59.958Z,19.10
2023-05-22T04:45:30.421Z,18.13
2023-05-22T04:47:57.054Z,18.02
2023-05-22T04:50:24.139Z,24.52
2023-05-22T04:52:50.749Z,19.08
2023-05-22T04:55:17.493Z,18.85
2023-05-22T04:57:47.428Z,18.50
2023-05-22T05:00:16.249Z,17.63
2023-05-22T05:02:43.525Z,18.17
2023-05-22T05:05:10.273Z,17.15
2023-05-22T05:07:40.188Z,19.25
2023-05-22T05:10:07.487Z,17.02
2023-05-22T05:12:34.148Z,16.77
2023-05-22T05:15:00.951Z,17.65
2023-05-22T05:17:27.678Z,17.05
2023-05-22T05:19:54.400Z,18.00
2023-05-22T05:22:20.933Z,16.02
2023-05-22T05:24:47.432Z,15.85
2023-05-22T05:27:14.063Z,18.85
2023-05-22T05:29:43.444Z,16.30
2023-05-22T05:32:11.619Z,15.25
2023-05-22T05:34:38.221Z,15.75
2023-05-22T05:37:05.058Z,18.85
2023-05-22T05:39:31.536Z,15.45
2023-05-22T05:41:58.159Z,17.40
2023-05-22T05:44:24.760Z,17.48
2023-05-22T05:46:52.564Z,15.00
2023-05-22T05:49:20.026Z,15.80
2023-05-22T05:51:46.525Z,23.35
2023-05-22T05:54:13.064Z,16.95
2023-05-22T05:56:39.902Z,15.20
2023-05-22T05:59:06.422Z,14.50
2023-05-22T06:01:35.190Z,14.68
2023-05-22T06:04:03.410Z,14.65
2023-05-22T06:06:36.630Z,14.52
2023-05-22T06:09:06.185Z,18.08
2023-05-22T06:11:33.395Z,15.52
2023-05-22T06:14:02.838Z,14.18
2023-05-22T06:16:29.780Z,17.70
2023-05-22T06:18:58.842Z,14.95
2023-05-22T06:21:26.099Z,14.50
2023-05-22T06:23:52.781Z,17.77
2023-05-22T06:26:19.375Z,13.98
2023-05-22T06:28:45.846Z,14.32
2023-05-22T06:31:15.381Z,18.45
2023-05-22T06:33:43.325Z,15.27
2023-05-22T06:36:11.481Z,14.38
2023-05-22T06:38:38.133Z,15.70
2023-05-22T06:41:05.527Z,15.13
2023-05-22T06:43:32.349Z,15.18
2023-05-22T06:45:59.001Z,14.90
2023-05-22T06:48:25.494Z,17.33
2023-05-22T06:50:51.940Z,14.27
2023-05-22T06:53:18.522Z,14.45
2023-05-22T06:55:45.176Z,14.48
2023-05-22T06:58:11.755Z,14.52
2023-05-22T07:00:38.534Z,15.05
2023-05-22T07:03:06.855Z,16.05
2023-05-22T07:05:33.612Z,13.85
2023-05-22T07:08:00.221Z,14.15
2023-05-22T07:10:27.834Z,13.48
2023-05-22T07:12:54.810Z,17.00
2023-05-22T07:15:21.550Z,13.27
2023-05-22T07:17:49.255Z,13.27
2023-05-22T07:20:18.203Z,15.77
2023-05-22T07:22:44.733Z,14.00
2023-05-22T07:25:11.300Z,12.75
2023-05-22T07:27:37.949Z,14.32
2023-05-22T07:30:04.857Z,13.38
2023-05-22T07:32:31.441Z,17.83
2023-05-22T07:34:58.068Z,13.18
2023-05-22T07:37:24.672Z,12.65
2023-05-22T07:39:51.240Z,17.40
2023-05-22T07:42:17.802Z,12.00
2023-05-22T07:44:44.321Z,12.60
2023-05-22T07:47:11.004Z,13.07
2023-05-22T07:49:37.500Z,17.40
2023-05-22T07:52:04.202Z,12.70
2023-05-22T07:54:30.888Z,13.60
2023-05-22T07:56:57.680Z,12.45
2023-05-22T07:59:25.415Z,12.88
2023-05-22T08:01:52.281Z,12.32
2023-05-22T08:04:18.920Z,13.60
2023-05-22T08:06:45.656Z,12.65
2023-05-22T08:09:12.528Z,13.50
2023-05-22T08:11:42.095Z,12.68
2023-05-22T08:14:08.947Z,12.63
2023-05-22T08:16:35.695Z,11.55
2023-05-22T08:19:03.142Z,14.15
2023-05-22T08:21:29.847Z,13.45
2023-05-22T08:23:56.295Z,12.63
2023-05-22T08:26:23.290Z,12.55
2023-05-22T08:28:49.788Z,12.02
2023-05-22T08:31:16.325Z,11.68
2023-05-22T08:33:43.009Z,12.32
2023-05-22T08:36:09.768Z,12.43
2023-05-22T08:38:37.023Z,16.05
2023-05-22T08:41:04.948Z,17.35
2023-05-22T08:43:31.474Z,17.55
2023-05-22T08:46:05.913Z,18.50
2023-05-22T08:48:33.550Z,14.35
2023-05-22T08:51:07.409Z,16.98
2023-05-22T08:53:38.813Z,15.13
2023-05-22T08:56:06.905Z,16.05
2023-05-22T08:58:35.808Z,16.55
2023-05-22T09:01:04.437Z,16.00
2023-05-22T09:03:34.899Z,15.77
2023-05-22T09:06:02.208Z,13.27
2023-05-22T09:08:29.069Z,17.70
2023-05-22T09:10:56.392Z,13.75
2023-05-22T09:13:27.832Z,13.40
2023-05-22T09:15:59.629Z,12.95
2023-05-22T09:18:29.896Z,13.35
2023-05-22T09:21:00.015Z,12.60
2023-05-22T09:23:28.080Z,15.55
2023-05-22T09:25:59.030Z,16.95
2023-05-22T09:28:26.217Z,13.38
2023-05-22T09:30:54.767Z,14.73
2023-05-22T09:33:24.144Z,14.30
2023-05-22T09:35:52.333Z,13.75
2023-05-22T09:38:19.040Z,13.77
2023-05-22T09:40:45.579Z,14.80
2023-05-22T09:43:12.657Z,15.02
2023-05-22T09:45:39.414Z,14.10
2023-05-22T09:48:06.774Z,14.55
2023-05-22T09:50:33.504Z,14.80
2023-05-22T09:53:05.033Z,15.13
2023-05-22T09:55:32.125Z,15.18
2023-05-22T09:58:03.644Z,13.70
2023-05-22T10:00:31.616Z,15.13
2023-05-22T10:03:04.068Z,14.27
2023-05-22T10:05:32.070Z,13.38
2023-05-22T10:08:26.328Z,14.95
2023-05-22T10:10:53.334Z,14.18
2023-05-22T10:13:23.647Z,14.30
2023-05-22T10:15:50.927Z,14.60
2023-05-22T10:18:18.465Z,15.48
2023-05-22T10:20:47.061Z,12.10
2023-05-22T10:23:16.450Z,12.52
2023-05-22T10:25:44.566Z,13.27
2023-05-22T10:28:11.606Z,13.52
2023-05-22T10:30:42.614Z,12.93
2023-05-22T10:33:18.379Z,13.88
2023-05-22T10:36:16.492Z,15.25
2023-05-22T10:38:58.534Z,13.50
2023-05-22T10:41:26.284Z,13.70
2023-05-22T10:43:56.984Z,13.88
2023-05-22T10:46:23.868Z,14.48
2023-05-22T10:48:52.775Z,14.80
2023-05-22T10:51:23.146Z,16.52
2023-05-22T10:53:58.170Z,14.48
2023-05-22T10:56:36.041Z,13.95
2023-05-22T10:59:08.042Z,14.23
2023-05-22T11:01:37.538Z,13.77
2023-05-22T11:06:45.774Z,15.05
2023-05-22T11:09:31.288Z,15.27
2023-05-22T11:12:22.584Z,13.10
2023-05-22T11:15:07.010Z,14.75
2023-05-22T11:17:39.780Z,15.30
2023-05-22T11:20:28.332Z,16.70
2023-05-22T11:23:03.761Z,13.57
2023-05-22T11:25:33.318Z,14.18
2023-05-22T11:28:02.836Z,13.48
2023-05-22T11:30:32.671Z,13.93
2023-05-22T11:33:00.834Z,13.73
2023-05-22T11:35:28.445Z,13.70
2023-05-22T11:37:56.362Z,13.85
2023-05-22T11:40:26.893Z,13.60
2023-05-22T11:42:54.122Z,14.90
2023-05-22T11:45:21.434Z,12.88
2023-05-22T11:47:48.830Z,13.13
2023-05-22T11:50:22.635Z,14.52
2023-05-22T11:52:56.688Z,12.65
2023-05-22T11:55:23.240Z,13.73
2023-05-22T11:57:49.803Z,12.68
2023-05-22T12:00:17.020Z,12.32
2023-05-22T12:02:47.542Z,13.32
2023-05-22T12:05:15.902Z,14.38
2023-05-22T12:07:43.149Z,14.52
2023-05-22T12:10:14.608Z,14.15
2023-05-22T12:12:42.450Z,14.25
2023-05-22T12:15:09.803Z,13.90
2023-05-22T12:17:40.071Z,14.07
2023-05-22T12:20:07.418Z,14.77
2023-05-22T12:22:33.979Z,15.00
2023-05-22T12:25:00.546Z,15.77
2023-05-22T12:27:33.362Z,14.63
2023-05-22T12:30:10.773Z,15.32
2023-05-22T12:32:37.378Z,16.60
2023-05-22T12:35:04.063Z,13.40
2023-05-22T12:37:32.005Z,14.05
2023-05-22T12:40:00.237Z,13.60
2023-05-22T12:42:27.746Z,14.77
2023-05-22T12:44:56.280Z,15.05
2023-05-22T12:47:24.065Z,13.67
2023-05-22T12:49:51.207Z,13.27
2023-05-22T12:52:17.985Z,16.85
2023-05-22T12:54:44.468Z,12.02
2023-05-22T12:57:11.738Z,12.65
2023-05-22T12:59:38.273Z,13.23
2023-05-22T13:02:05.548Z,14.52
2023-05-22T13:04:32.401Z,13.57
2023-05-22T13:06:58.945Z,15.40
2023-05-22T13:09:25.534Z,12.65
2023-05-22T13:11:52.160Z,12.77
2023-05-22T13:14:18.810Z,12.10
2023-05-22T13:16:45.270Z,14.93
2023-05-22T13:19:11.993Z,16.67
2023-05-22T13:21:38.488Z,13.13
2023-05-22T13:24:05.061Z,13.90
2023-05-22T13:26:31.581Z,14.50
2023-05-22T13:28:58.024Z,13.05
2023-05-22T13:31:24.861Z,12.02
2023-05-22T13:33:51.432Z,14.00
2023-05-22T13:36:18.429Z,11.63
2023-05-22T13:38:44.925Z,11.95
2023-05-22T13:41:11.796Z,11.48
2023-05-22T13:43:38.370Z,12.15
2023-05-22T13:46:04.905Z,11.35
2023-05-22T13:48:31.569Z,12.18
2023-05-22T13:50:58.096Z,11.60
2023-05-22T13:53:24.935Z,11.85
2023-05-22T13:55:51.705Z,11.85
2023-05-22T13:58:18.284Z,17.25
2023-05-22T14:00:44.811Z,12.63
2023-05-22T14:03:17.295Z,12.18
2023-05-22T14:05:44.556Z,12.98
2023-05-22T14:08:11.183Z,14.80
2023-05-22T14:10:38.600Z,14.32
2023-05-22T14:13:05.477Z,15.52
2023-05-22T14:15:32.040Z,13.50
2023-05-22T14:17:58.576Z,14.85
2023-05-22T14:20:25.173Z,14.80
2023-05-22T14:22:57.556Z,12.95
2023-05-22T14:25:28.767Z,12.23
2023-05-22T14:27:55.322Z,13.52
2023-05-22T14:30:21.868Z,12.63
2023-05-22T14:32:48.812Z,12.73
2023-05-22T14:35:16.741Z,11.82
2023-05-22T14:37:43.971Z,11.27
2023-05-22T14:40:11.106Z,11.95
2023-05-22T14:42:39.164Z,12.43
2023-05-22T14:45:06.089Z,12.02
2023-05-22T14:47:32.693Z,12.32
2023-05-22T14:50:10.067Z,12.80
2023-05-22T14:52:45.378Z,12.18
2023-05-22T14:55:11.943Z,12.05
2023-05-22T14:57:38.497Z,12.55
2023-05-22T15:00:09.978Z,13.95
2023-05-22T15:02:37.503Z,12.15
2023-05-22T15:05:04.722Z,12.05
2023-05-22T15:07:43.167Z,12.65
2023-05-22T15:12:40.056Z,17.77
2023-05-22T15:15:07.266Z,12.63
2023-05-22T15:17:33.860Z,12.88
2023-05-22T15:20:00.420Z,12.82
2023-05-22T15:22:26.937Z,14.00
2023-05-22T15:25:08.082Z,14.85
2023-05-22T15:27:35.525Z,18.88
2023-05-22T15:30:03.305Z,17.73
2023-05-22T15:32:32.014Z,15.80
2023-05-22T15:34:58.564Z,16.50
2023-05-22T15:37:24.995Z,20.27
2023-05-22T15:39:51.507Z,23.25
2023-05-22T15:42:18.062Z,33.33
2023-05-22T15:44:44.542Z,33.72
2023-05-22T15:47:11.188Z,37.17
2023-05-22T15:49:37.808Z,36.58
2023-05-22T15:52:04.370Z,39.78
2023-05-22T15:54:31.077Z,38.25
2023-05-22T15:56:57.840Z,39.22
2023-05-22T15:59:24.361Z,44.55
2023-05-22T16:01:50.988Z,40.17
2023-05-22T16:04:17.530Z,41.00
2023-05-22T16:06:44.110Z,40.55
2023-05-22T16:09:11.022Z,39.03
2023-05-22T16:11:37.932Z,41.60
2023-05-22T16:14:04.776Z,42.25
2023-05-22T16:16:31.399Z,45.63
2023-05-22T16:18:57.994Z,43.78
2023-05-22T16:21:26.457Z,42.35
2023-05-22T16:23:53.054Z,43.42
2023-05-22T16:26:19.843Z,47.38
2023-05-22T16:28:46.310Z,45.90
2023-05-22T16:31:13.960Z,47.05
2023-05-22T16:33:40.457Z,44.10
2023-05-22T16:36:07.303Z,45.03
2023-05-22T16:38:33.882Z,43.35
2023-05-22T16:41:01.226Z,45.45
2023-05-22T16:43:27.912Z,43.47
2023-05-22T16:45:54.469Z,43.42
2023-05-22T16:48:21.186Z,44.65
2023-05-22T16:50:47.791Z,45.08
2023-05-22T16:53:17.100Z,51.33
2023-05-22T16:55:43.826Z,50.45
2023-05-22T16:58:11.755Z,44.92
2023-05-22T17:00:39.971Z,43.90
2023-05-22T17:03:08.084Z,46.78
2023-05-22T17:05:35.829Z,48.78
2023-05-22T17:08:02.955Z,45.50
2023-05-22T17:10:29.540Z,51.72
2023-05-22T17:12:56.454Z,47.38
2023-05-22T17:15:22.990Z,46.05
2023-05-22T17:17:49.844Z,49.72
2023-05-22T17:20:16.791Z,50.97
2023-05-22T17:22:43.650Z,47.42
2023-05-22T17:25:10.438Z,49.60
2023-05-22T17:27:37.154Z,54.58
2023-05-22T17:30:05.225Z,48.90
2023-05-22T17:32:31.888Z,54.40
2023-05-22T17:34:58.968Z,51.30
2023-05-22T17:37:25.528Z,49.42
2023-05-22T17:39:52.041Z,49.22
2023-05-22T17:42:18.672Z,49.58
2023-05-22T17:44:45.317Z,51.35
2023-05-22T17:47:13.323Z,49.33
2023-05-22T17:49:40.002Z,48.47
2023-05-22T17:52:08.493Z,47.75
2023-05-22T17:54:35.628Z,46.53
2023-05-22T17:57:04.047Z,51.58
2023-05-22T17:59:32.255Z,48.72
2023-05-22T18:01:58.979Z,46.38
2023-05-22T18:04:25.510Z,49.72
2023-05-22T18:06:52.183Z,44.75
2023-05-22T18:09:18.844Z,47.22
2023-05-22T18:11:45.342Z,46.60
2023-05-22T18:14:12.059Z,45.45
2023-05-22T18:16:38.667Z,44.63
2023-05-22T18:19:05.249Z,43.25
2023-05-22T18:21:32.253Z,45.40
2023-05-22T18:23:59.059Z,44.13
2023-05-22T18:26:26.781Z,46.55
2023-05-22T18:28:53.310Z,52.20
2023-05-22T18:31:20.016Z,45.42
2023-05-22T18:33:46.701Z,45.40
2023-05-22T18:36:13.271Z,46.55
2023-05-22T18:38:39.936Z,48.15
2023-05-22T18:41:07.074Z,45.17
2023-05-22T18:43:33.773Z,48.45
2023-05-22T18:46:00.300Z,49.97
2023-05-22T18:48:28.171Z,46.15
2023-05-22T18:50:57.282Z,47.38
2023-05-22T18:53:25.347Z,49.55
2023-05-22T18:55:52.501Z,45.63
2023-05-22T18:58:19.099Z,45.85
2023-05-22T19:00:45.699Z,46.35
2023-05-22T19:03:12.349Z,46.35
2023-05-22T19:05:38.895Z,46.53
2023-05-22T19:08:06.124Z,49.53
2023-05-22T19:10:33.058Z,46.72
2023-05-22T19:12:59.804Z,45.38
2023-05-22T19:15:26.275Z,44.90
2023-05-22T19:17:52.896Z,45.13
2023-05-22T19:20:19.509Z,45.80
2023-05-22T19:22:46.399Z,45.90
2023-05-22T19:25:12.878Z,46.60
2023-05-22T19:27:39.598Z,46.75
2023-05-22T19:30:07.237Z,45.90
2023-05-22T19:32:33.944Z,45.55
2023-05-22T19:35:00.495Z,51.10
2023-05-22T19:37:26.983Z,51.83
2023-05-22T19:39:54.287Z,48.75
2023-05-22T19:42:20.780Z,45.50
2023-05-22T19:44:47.264Z,45.58
2023-05-22T19:47:13.919Z,51.83
2023-05-22T19:49:40.570Z,47.80
2023-05-22T19:52:07.202Z,45.30
2023-05-22T19:54:35.233Z,51.80
2023-05-22T19:57:03.176Z,50.65
2023-05-22T19:59:29.731Z,48.70
2023-05-22T20:01:56.292Z,45.90
2023-05-22T20:04:23.215Z,44.67
2023-05-22T20:06:49.768Z,46.40
2023-05-22T20:09:16.751Z,46.28
2023-05-22T20:11:43.287Z,46.10
2023-05-22T20:14:09.843Z,46.30
2023-05-22T20:16:36.535Z,44.47
2023-05-22T20:19:04.069Z,42.10
2023-05-22T20:21:31.032Z,41.17
2023-05-22T20:23:57.642Z,42.38
2023-05-22T20:26:24.211Z,42.35
2023-05-22T20:28:50.835Z,42.75
2023-05-22T20:31:17.391Z,44.25
2023-05-22T20:33:44.018Z,45.63
2023-05-22T20:36:10.708Z,44.05
2023-05-22T20:38:37.170Z,44.30
2023-05-22T20:41:08.144Z,47.08
2023-05-22T20:43:36.302Z,45.95
2023-05-22T20:46:03.084Z,43.45
2023-05-22T20:48:29.694Z,45.35
2023-05-22T20:50:56.484Z,43.50
2023-05-22T20:53:24.451Z,43.10
2023-05-22T20:55:53.112Z,44.03
2023-05-22T20:58:19.950Z,43.95
2023-05-22T21:00:49.210Z,44.05
2023-05-22T21:03:16.534Z,44.67
2023-05-22T21:05:43.120Z,44.75
2023-05-22T21:08:09.569Z,46.40
2023-05-22T21:10:36.081Z,50.83
2023-05-22T21:13:02.606Z,44.35
2023-05-22T21:15:29.029Z,44.35
2023-05-22T21:17:55.615Z,44.88
2023-05-22T21:20:22.473Z,45.40
2023-05-22T21:22:48.986Z,47.05
2023-05-22T21:25:15.618Z,45.60
2023-05-22T21:27:42.367Z,45.92
2023-05-22T21:30:12.591Z,47.17
2023-05-22T21:35:05.989Z,45.08
2023-05-22T21:37:32.483Z,46.85
2023-05-22T21:39:58.973Z,60.58
2023-05-22T21:42:26.209Z,37.58
2023-05-22T21:44:52.806Z,38.55
2023-05-22T21:47:19.353Z,41.58
2023-05-22T21:49:45.806Z,46.47
2023-05-22T21:52:12.281Z,82.15
2023-05-22T21:54:39.549Z,21.63
2023-05-22T21:57:06.316Z,42.60
2023-05-22T21:59:32.949Z,76.00
2023-05-22T22:01:59.508Z,52.45
2023-05-22T22:04:26.061Z,47.70
2023-05-22T22:06:52.600Z,35.35
2023-05-22T22:09:19.112Z,44.53
2023-05-22T22:11:45.778Z,44.10
2023-05-22T22:14:12.256Z,39.72
2023-05-22T22:16:40.759Z,40.97
2023-05-22T22:19:07.405Z,46.45
2023-05-22T22:21:34.203Z,48.45
2023-05-22T22:24:00.729Z,54.90
2023-05-22T22:26:30.552Z,51.63
2023-05-22T22:28:57.545Z,24.75
2023-05-22T22:31:24.552Z,51.15
2023-05-22T22:33:51.132Z,52.00
2023-05-22T22:36:17.630Z,64.55
2023-05-22T22:38:44.117Z,39.60
2023-05-22T22:41:11.080Z,49.47
2023-05-22T22:43:37.714Z,44.67
2023-05-22T22:46:04.201Z,33.67
2023-05-22T22:48:30.826Z,29.60
2023-05-22T22:50:58.096Z,58.50
2023-05-22T22:53:25.011Z,30.77
2023-05-22T22:55:57.595Z,24.50
2023-05-22T22:58:24.172Z,27.98
2023-05-22T23:00:50.926Z,53.05
2023-05-22T23:03:17.425Z,53.17
2023-05-22T23:05:44.053Z,52.58
2023-05-22T23:08:11.160Z,50.25
2023-05-22T23:10:37.751Z,33.72
2023-05-22T23:13:04.293Z,28.40
2023-05-22T23:15:30.767Z,43.60
2023-05-22T23:17:57.419Z,66.00
2023-05-22T23:20:23.961Z,25.17
2023-05-22T23:22:51.147Z,23.88
2023-05-22T23:25:17.677Z,25.95
2023-05-22T23:27:44.250Z,24.05
2023-05-22T23:30:11.370Z,30.33
2023-05-22T23:32:37.868Z,30.30
2023-05-22T23:35:05.340Z,29.42
2023-05-22T23:37:31.828Z,31.58
2023-05-22T23:39:58.268Z,31.38
2023-05-22T23:42:25.640Z,33.15
2023-05-22T23:44:52.111Z,35.25
2023-05-22T23:47:19.059Z,38.40
2023-05-22T23:49:45.689Z,40.15
2023-05-22T23:52:12.291Z,42.58
2023-05-22T23:54:39.021Z,43.45
2023-05-22T23:57:05.608Z,44.30
2023-05-22T23:59:32.056Z,46.95
